createdAt,value
2018-11-22T00:12:25.858Z,8.5
2018-11-22T00:17:34.792Z,8.4
2018-11-22T00:22:43.543Z,8.4
2018-11-22T00:33:01.377Z,8.4
2018-11-22T00:43:19.038Z,8.3
2018-11-22T00:53:36.767Z,8.3
2018-11-22T01:03:54.470Z,8.3
2018-11-22T01:14:12.173Z,8.2
2018-11-22T01:19:20.956Z,8.2
2018-11-22T01:24:29.798Z,8.1
2018-11-22T01:45:05.326Z,8
2018-11-22T01:55:23.090Z,7.9
2018-11-22T02:15:58.700Z,7.7
2018-11-22T02:36:34.178Z,7.8
2018-11-22T02:57:09.919Z,7.7
2018-11-22T03:07:27.724Z,7.9
2018-11-22T03:38:21.055Z,7.9
2018-11-22T03:43:29.953Z,7.8
2018-11-22T03:48:38.719Z,7.9
2018-11-22T03:58:56.491Z,8
2018-11-22T04:09:14.197Z,8.1
2018-11-22T04:19:32.039Z,8.2
2018-11-22T04:40:07.408Z,8.4
2018-11-22T04:45:16.241Z,8.6
2018-11-22T04:50:25.088Z,8.5
2018-11-22T05:11:00.431Z,8.6
2018-11-22T05:21:18.121Z,8.8
2018-11-22T05:41:53.316Z,8.9
2018-11-22T05:52:10.914Z,8.9
2018-11-22T05:57:19.678Z,8.9
2018-11-22T06:02:28.508Z,8.9
2018-11-22T06:23:03.664Z,9.1
2018-11-22T06:33:21.123Z,9
2018-11-22T06:53:56.186Z,9.1
2018-11-22T07:04:13.696Z,9.1
2018-11-22T07:24:48.690Z,9.3
2018-11-22T07:35:06.175Z,9.5
2018-11-22T07:45:23.726Z,9.6
2018-11-22T08:05:58.475Z,9.9
2018-11-22T08:21:24.636Z,10.1
2018-11-22T08:47:07.987Z,10.4
2018-11-22T08:57:25.331Z,10.6
2018-11-22T09:07:42.700Z,10.8
2018-11-22T09:12:51.376Z,10.8
2018-11-22T09:28:17.290Z,10.9
2018-11-22T09:48:51.977Z,11.2
2018-11-22T10:24:52.297Z,11.7
2018-11-22T10:30:00.895Z,11.7
2018-11-22T10:40:18.171Z,11.9
2018-11-22T10:50:35.273Z,11.9
2018-11-22T11:11:09.637Z,12
2018-11-22T11:21:26.813Z,12.1
2018-11-22T11:26:35.385Z,12.1
2018-11-22T11:31:43.971Z,12.1
2018-11-22T11:42:00.996Z,12.2
2018-11-22T12:02:35.235Z,12.3
2018-11-22T12:12:52.350Z,12.4
2018-11-22T12:18:00.936Z,12.4
2018-11-22T12:23:09.590Z,12.4
2018-11-22T12:33:26.624Z,12.4
2018-11-22T12:54:00.772Z,12.5
2018-11-22T13:04:17.885Z,12.5
2018-11-22T13:14:35.067Z,12.4
2018-11-22T13:24:52.167Z,12.4
2018-11-22T13:55:43.467Z,12.5
2018-11-22T14:06:00.436Z,12.5
2018-11-22T14:16:17.658Z,12.5
2018-11-22T14:26:34.737Z,12.6
2018-11-22T14:36:51.754Z,12.5
2018-11-22T14:47:08.886Z,12.4
2018-11-22T14:57:25.955Z,12.4
2018-11-22T15:02:36.131Z,12.3
2018-11-22T15:28:17.391Z,12.1
2018-11-22T15:38:34.509Z,12
2018-11-22T15:48:51.531Z,12
2018-11-22T16:09:25.962Z,11.7
2018-11-22T16:19:43.126Z,11.6
2018-11-22T16:40:17.625Z,11.4
2018-11-22T17:21:26.495Z,11
2018-11-22T17:31:43.862Z,11
2018-11-22T17:42:01.141Z,10.9
2018-11-22T17:57:26.975Z,10.9
2018-11-22T18:02:35.693Z,10.8
2018-11-22T18:12:53.042Z,10.8
2018-11-22T18:23:10.378Z,10.7
2018-11-22T18:33:27.673Z,10.6
2018-11-22T18:38:36.364Z,10.6
2018-11-22T18:48:53.668Z,10.5
2018-11-22T18:54:02.458Z,10.5
2018-11-22T19:04:19.740Z,10.6
2018-11-22T19:09:28.451Z,10.6
2018-11-22T19:14:37.074Z,10.6
2018-11-22T19:19:45.836Z,10.6
2018-11-22T19:24:54.504Z,10.5
2018-11-22T19:35:11.891Z,10.5
2018-11-22T19:40:20.591Z,10.6
2018-11-22T19:45:29.228Z,10.6
2018-11-22T19:50:37.948Z,10.6
2018-11-22T19:55:46.675Z,10.6
2018-11-22T20:00:55.369Z,10.5
2018-11-22T20:06:04.071Z,10.4
2018-11-22T20:11:12.744Z,10.5
2018-11-22T20:16:21.367Z,10.5
2018-11-22T20:21:30.159Z,10.3
2018-11-22T20:31:47.617Z,10.2
2018-11-22T20:36:56.356Z,10.1
2018-11-22T20:42:05.063Z,10.1
2018-11-22T20:47:13.777Z,9.9
2018-11-22T20:57:31.249Z,9.8
2018-11-22T21:02:40.036Z,9.7
2018-11-22T21:07:48.772Z,9.8
2018-11-22T21:12:57.492Z,9.8
2018-11-22T21:18:06.262Z,9.7
2018-11-22T21:23:14.904Z,9.8
2018-11-22T21:28:23.724Z,9.7
2018-11-22T21:38:41.227Z,9.5
2018-11-22T21:43:49.994Z,9.4
2018-11-22T21:48:58.761Z,9.3
2018-11-22T21:54:07.544Z,9.3
2018-11-22T21:59:16.362Z,9.2
2018-11-22T22:04:25.026Z,9.3
2018-11-22T22:14:42.698Z,9.1
2018-11-22T22:19:51.424Z,9
2018-11-22T22:25:00.343Z,8.9
2018-11-22T22:30:09.037Z,8.9
2018-11-22T22:40:26.696Z,8.9
2018-11-22T22:45:35.505Z,8.7
2018-11-22T22:50:44.347Z,8.7
2018-11-22T22:55:53.197Z,8.6
2018-11-22T23:01:02.008Z,8.6
2018-11-22T23:06:10.839Z,8.5
2018-11-22T23:11:19.595Z,8.4
2018-11-22T23:16:28.521Z,8.3
2018-11-22T23:21:37.335Z,8.3
2018-11-22T23:26:46.203Z,8.2
2018-11-22T23:31:55.032Z,8.1
2018-11-22T23:42:12.731Z,7.9
2018-11-22T23:47:21.598Z,7.8
2018-11-22T23:57:39.376Z,7.6
